Time;durP1;ratioP1;P1;durP2;ratioP2;P2;SDS_P1;SDS_P2;PMS_P1;PMS_P2;Temp;Humidity;BMP_temperature;BMP_pressure;BME280_temperature;BME280_humidity;BME280_pressure;Samples;Min_cycle;Max_cycle;Signal;HPM_P1;HPM_P2
2022/08/27 00:01:15;;;;;;;3.40;1.70;;;;;;;;;;5014366;28;20094;-72
2022/08/27 00:03:43;;;;;;;3.67;2.00;;;;;;;;;;4997633;28;20495;-74
2022/08/27 00:06:12;;;;;;;4.00;1.67;;;;;;;;;;5016175;28;20050;-71
2022/08/27 00:08:40;;;;;;;5.30;1.73;;;;;;;;;;5015516;28;20054;-72
2022/08/27 00:11:08;;;;;;;6.65;1.90;;;;;;;;;;5013169;28;20484;-74
2022/08/27 00:13:35;;;;;;;7.85;1.77;;;;;;;;;;5014822;28;20046;-71
2022/08/27 00:16:02;;;;;;;7.05;1.92;;;;;;;;;;4996221;28;20049;-72
2022/08/27 00:18:28;;;;;;;5.75;1.80;;;;;;;;;;4997780;28;20517;-73
2022/08/27 00:20:54;;;;;;;4.88;1.77;;;;;;;;;;5014480;28;20042;-73
2022/08/27 00:23:20;;;;;;;2.75;1.98;;;;;;;;;;5013653;28;20518;-74
2022/08/27 00:25:46;;;;;;;5.50;1.90;;;;;;;;;;5014506;28;20069;-74
2022/08/27 00:28:12;;;;;;;5.30;1.88;;;;;;;;;;5012220;28;20109;-73
2022/08/27 00:30:38;;;;;;;6.85;2.22;;;;;;;;;;5014262;28;20443;-72
2022/08/27 00:33:04;;;;;;;7.35;2.10;;;;;;;;;;5007921;28;20495;-72
2022/08/27 00:35:31;;;;;;;5.35;2.00;;;;;;;;;;4987233;28;20038;-72
2022/08/27 00:37:57;;;;;;;5.82;2.33;;;;;;;;;;4995062;28;20484;-72
2022/08/27 00:40:23;;;;;;;4.20;2.10;;;;;;;;;;4995108;28;20053;-74
2022/08/27 00:42:49;;;;;;;5.15;2.28;;;;;;;;;;4995138;28;20042;-74
2022/08/27 00:45:22;;;;;;;3.95;1.83;;;;;;;;;;4995326;28;20407;-77
2022/08/27 00:47:53;;;;;;;7.23;1.80;;;;;;;;;;4996092;28;20507;-74
2022/08/27 00:50:34;;;;;;;4.13;1.80;;;;;;;;;;5016686;28;20101;-74
2022/08/27 00:53:04;;;;;;;4.07;1.70;;;;;;;;;;4997596;28;20104;-72
2022/08/27 00:55:38;;;;;;;3.45;1.85;;;;;;;;;;5015079;28;20125;-72
2022/08/27 00:58:16;;;;;;;6.28;1.70;;;;;;;;;;5015473;28;20057;-72
2022/08/27 01:00:44;;;;;;;4.97;1.77;;;;;;;;;;5015367;28;20115;-72
2022/08/27 01:03:11;;;;;;;6.30;1.80;;;;;;;;;;5015235;28;20140;-71
2022/08/27 01:05:38;;;;;;;4.05;1.88;;;;;;;;;;5014002;28;20045;-72
2022/08/27 01:08:11;;;;;;;4.20;2.03;;;;;;;;;;4999853;28;20125;-71
2022/08/27 01:10:39;;;;;;;5.82;1.80;;;;;;;;;;4995449;28;20050;-72
2022/08/27 01:13:13;;;;;;;3.85;1.80;;;;;;;;;;4995969;28;20061;-72
2022/08/27 01:15:40;;;;;;;;;;;;;;;;;;4995981;28;20057;-72
2022/08/27 01:18:07;;;;;;;4.15;1.70;;;;;;;;;;4994231;28;20296;-72
2022/08/27 01:20:55;;;;;;;5.03;1.80;;;;;;;;;;4994097;28;20051;-72
2022/08/27 01:23:32;;;;;;;3.33;1.65;;;;;;;;;;4976905;28;20447;-72
2022/08/27 01:25:59;;;;;;;4.65;1.83;;;;;;;;;;4993877;28;20046;-73
2022/08/27 01:28:26;;;;;;;7.65;1.63;;;;;;;;;;4994464;28;20105;-72
2022/08/27 01:30:51;;;;;;;3.22;1.50;;;;;;;;;;4994208;28;20091;-72
2022/08/27 01:33:19;;;;;;;4.63;1.90;;;;;;;;;;5013561;28;20456;-71
2022/08/27 01:35:49;;;;;;;7.20;1.83;;;;;;;;;;5013458;28;20054;-73
2022/08/27 01:38:16;;;;;;;4.78;1.88;;;;;;;;;;5013367;28;20119;-71
2022/08/27 01:40:42;;;;;;;4.22;1.70;;;;;;;;;;5011730;28;20096;-73
2022/08/27 01:43:09;;;;;;;4.25;1.83;;;;;;;;;;5014325;28;20133;-72
2022/08/27 01:45:43;;;;;;;5.78;2.05;;;;;;;;;;5015909;28;20120;-72
2022/08/27 01:48:09;;;;;;;6.50;1.77;;;;;;;;;;5013718;28;20466;-69
2022/08/27 01:50:38;;;;;;;4.25;1.75;;;;;;;;;;4997510;28;20133;-68
2022/08/27 01:53:13;;;;;;;9.52;1.90;;;;;;;;;;5013231;28;20130;-67
2022/08/27 01:55:40;;;;;;;6.90;2.03;;;;;;;;;;5012328;28;20049;-67
2022/08/27 01:58:07;;;;;;;3.55;1.80;;;;;;;;;;4977291;28;20641;-67
2022/08/27 02:00:37;;;;;;;6.05;1.98;;;;;;;;;;4995377;28;20042;-68
2022/08/27 02:03:05;;;;;;;4.05;1.90;;;;;;;;;;4977431;28;20053;-68
2022/08/27 02:05:31;;;;;;;6.22;1.70;;;;;;;;;;5002425;28;20050;-69
2022/08/27 02:07:57;;;;;;;6.95;1.85;;;;;;;;;;5012203;28;20053;-68
2022/08/27 02:10:30;;;;;;;4.60;1.95;;;;;;;;;;5007678;28;20132;-68
2022/08/27 02:12:56;;;;;;;4.65;1.90;;;;;;;;;;4993441;28;20054;-68
2022/08/27 02:15:23;;;;;;;3.30;2.05;;;;;;;;;;5000080;28;20061;-68
2022/08/27 02:17:49;;;;;;;3.33;2.03;;;;;;;;;;5012640;28;20137;-68
2022/08/27 02:20:16;;;;;;;4.47;2.20;;;;;;;;;;5011918;28;20050;-67
2022/08/27 02:22:43;;;;;;;3.80;2.15;;;;;;;;;;5012374;28;20060;-68
2022/08/27 02:25:12;;;;;;;6.00;2.42;;;;;;;;;;5011184;28;20053;-68
2022/08/27 02:27:40;;;;;;;6.50;2.22;;;;;;;;;;5012116;28;20053;-68
2022/08/27 02:30:07;;;;;;;2.72;1.75;;;;;;;;;;5011172;28;20062;-68
2022/08/27 02:32:33;;;;;;;4.13;1.90;;;;;;;;;;5011493;28;20080;-67
2022/08/27 02:35:00;;;;;;;7.13;1.70;;;;;;;;;;5005258;28;20042;-67
2022/08/27 02:37:27;;;;;;;4.78;1.52;;;;;;;;;;4992157;28;20058;-67
2022/08/27 02:39:53;;;;;;;5.55;1.50;;;;;;;;;;4991268;28;20174;-68
2022/08/27 02:42:18;;;;;;;2.70;1.50;;;;;;;;;;4991749;28;20469;-67
2022/08/27 02:44:44;;;;;;;1.60;1.30;;;;;;;;;;4991386;28;20046;-67
2022/08/27 02:47:11;;;;;;;2.28;1.30;;;;;;;;;;4993155;28;20141;-69
2022/08/27 02:49:36;;;;;;;2.75;1.50;;;;;;;;;;5002551;28;20081;-67
2022/08/27 02:52:03;;;;;;;3.33;1.30;;;;;;;;;;5010424;28;20491;-67
2022/08/27 02:54:29;;;;;;;5.22;1.83;;;;;;;;;;5011430;28;20061;-66
2022/08/27 02:56:55;;;;;;;1.75;1.25;;;;;;;;;;5011179;28;20492;-68
2022/08/27 02:59:21;;;;;;;2.53;1.27;;;;;;;;;;5011565;28;20057;-68
2022/08/27 03:01:48;;;;;;;8.95;1.58;;;;;;;;;;5011197;28;20431;-67
2022/08/27 03:04:15;;;;;;;3.35;1.60;;;;;;;;;;5011062;28;20043;-67
2022/08/27 03:06:41;;;;;;;3.80;1.70;;;;;;;;;;4995761;28;20085;-69
2022/08/27 03:09:09;;;;;;;6.65;1.95;;;;;;;;;;4994813;28;20479;-68
2022/08/27 03:11:35;;;;;;;6.63;2.00;;;;;;;;;;4974389;28;20097;-67
2022/08/27 03:14:01;;;;;;;4.22;1.60;;;;;;;;;;4992552;28;20047;-67
2022/08/27 03:16:27;;;;;;;6.80;1.90;;;;;;;;;;4990458;28;20117;-67
2022/08/27 03:18:53;;;;;;;4.82;1.90;;;;;;;;;;4991385;28;20461;-68
2022/08/27 03:21:22;;;;;;;5.30;1.75;;;;;;;;;;4991960;28;20077;-68
2022/08/27 03:23:50;;;;;;;3.38;1.60;;;;;;;;;;4991744;28;20074;-68
2022/08/27 03:26:17;;;;;;;4.90;1.70;;;;;;;;;;4992923;28;20046;-67
2022/08/27 03:28:43;;;;;;;3.15;1.70;;;;;;;;;;4991910;28;20492;-66
2022/08/27 03:31:19;;;;;;;2.08;1.40;;;;;;;;;;4991344;28;20089;-68
2022/08/27 03:33:45;;;;;;;4.13;1.70;;;;;;;;;;4991383;28;20145;-67
2022/08/27 03:36:11;;;;;;;2.28;1.60;;;;;;;;;;4991514;28;20104;-67
2022/08/27 03:38:37;;;;;;;3.65;1.40;;;;;;;;;;4991452;28;20140;-67
2022/08/27 03:41:04;;;;;;;2.33;1.58;;;;;;;;;;4990368;28;20054;-66
2022/08/27 03:43:30;;;;;;;6.30;1.60;;;;;;;;;;4991271;28;20097;-67
2022/08/27 03:45:56;;;;;;;2.83;1.70;;;;;;;;;;4991241;28;20057;-68
2022/08/27 03:48:22;;;;;;;3.47;1.70;;;;;;;;;;4990916;28;20056;-67
2022/08/27 03:50:49;;;;;;;3.47;1.30;;;;;;;;;;4991028;28;20125;-66
2022/08/27 03:53:17;;;;;;;1.63;1.27;;;;;;;;;;4990663;28;20396;-67
2022/08/27 03:55:42;;;;;;;5.50;1.15;;;;;;;;;;4991345;28;20058;-67
2022/08/27 03:58:12;;;;;;;2.35;1.40;;;;;;;;;;4990895;28;20153;-67
2022/08/27 04:00:39;;;;;;;7.95;1.65;;;;;;;;;;4990694;28;20567;-68
2022/08/27 04:03:06;;;;;;;6.45;1.52;;;;;;;;;;4991018;28;20096;-67
2022/08/27 04:05:33;;;;;;;2.35;1.30;;;;;;;;;;5010431;28;20133;-67
2022/08/27 04:08:00;;;;;;;2.05;1.20;;;;;;;;;;5010657;28;20042;-66
2022/08/27 04:10:26;;;;;;;3.45;1.20;;;;;;;;;;5009787;28;20053;-67
2022/08/27 04:12:53;;;;;;;2.35;1.38;;;;;;;;;;5002286;28;20123;-68
2022/08/27 04:15:19;;;;;;;1.58;1.05;;;;;;;;;;4992697;28;20050;-69
2022/08/27 04:17:44;;;;;;;5.32;1.30;;;;;;;;;;4992857;28;20058;-67
2022/08/27 04:20:11;;;;;;;2.55;1.30;;;;;;;;;;4990464;28;20458;-65
2022/08/27 04:22:38;;;;;;;3.97;1.35;;;;;;;;;;4991383;28;20047;-66
2022/08/27 04:25:05;;;;;;;2.90;1.45;;;;;;;;;;4992157;28;20053;-67
2022/08/27 04:27:32;;;;;;;3.05;1.23;;;;;;;;;;4976982;28;20054;-66
2022/08/27 04:29:59;;;;;;;5.70;1.83;;;;;;;;;;5001328;28;20464;-67
2022/08/27 04:32:27;;;;;;;3.15;1.20;;;;;;;;;;5012617;28;20078;-67
2022/08/27 04:34:57;;;;;;;2.90;1.30;;;;;;;;;;5014973;28;20054;-67
2022/08/27 04:37:24;;;;;;;2.65;1.50;;;;;;;;;;5015076;28;20049;-67
2022/08/27 04:39:50;;;;;;;2.72;1.33;;;;;;;;;;5013413;28;20080;-69
2022/08/27 04:42:17;;;;;;;4.28;1.58;;;;;;;;;;4996148;28;20106;-68
2022/08/27 04:44:44;;;;;;;2.20;1.30;;;;;;;;;;5011972;28;20056;-66
2022/08/27 04:47:10;;;;;;;2.10;1.27;;;;;;;;;;5009776;28;20044;-67
2022/08/27 04:49:36;;;;;;;2.30;1.23;;;;;;;;;;5010819;28;20064;-66
2022/08/27 04:52:03;;;;;;;5.93;1.40;;;;;;;;;;5011439;28;20125;-66
2022/08/27 04:54:29;;;;;;;1.50;1.17;;;;;;;;;;5009752;28;20104;-66
2022/08/27 04:56:55;;;;;;;4.20;1.45;;;;;;;;;;4992386;28;20118;-67
2022/08/27 04:59:21;;;;;;;5.32;1.60;;;;;;;;;;5010663;28;20053;-67
2022/08/27 05:01:47;;;;;;;7.40;1.40;;;;;;;;;;5010320;28;20066;-67
2022/08/27 05:04:15;;;;;;;2.83;1.50;;;;;;;;;;5008246;28;20527;-68
2022/08/27 05:06:44;;;;;;;4.35;1.23;;;;;;;;;;5009806;28;20439;-67
2022/08/27 05:09:11;;;;;;;3.45;1.40;;;;;;;;;;5010817;28;20046;-67
2022/08/27 05:11:37;;;;;;;4.32;1.25;;;;;;;;;;5011376;28;20045;-65
2022/08/27 05:14:05;;;;;;;2.80;1.55;;;;;;;;;;5011145;28;20041;-66
2022/08/27 05:16:32;;;;;;;3.08;1.40;;;;;;;;;;5015483;28;20572;-66
2022/08/27 05:18:58;;;;;;;4.30;1.30;;;;;;;;;;5016578;28;20076;-66
2022/08/27 05:21:33;;;;;;;4.22;1.50;;;;;;;;;;5003446;28;20349;-67
2022/08/27 05:24:01;;;;;;;2.90;1.48;;;;;;;;;;4995581;28;20074;-66
2022/08/27 05:26:28;;;;;;;4.75;1.50;;;;;;;;;;4994785;28;20047;-66
2022/08/27 05:28:57;;;;;;;6.78;1.90;;;;;;;;;;4995731;28;20054;-68
2022/08/27 05:31:23;;;;;;;3.13;1.63;;;;;;;;;;4994507;28;20070;-66
2022/08/27 05:33:49;;;;;;;5.30;1.55;;;;;;;;;;4994552;28;20085;-67
2022/08/27 05:36:29;;;;;;;6.15;1.63;;;;;;;;;;4994154;28;20053;-66
2022/08/27 05:38:57;;;;;;;4.03;1.55;;;;;;;;;;4993730;28;20069;-65
2022/08/27 05:41:26;;;;;;;5.50;2.30;;;;;;;;;;4993175;28;20042;-66
2022/08/27 05:43:57;;;;;;;3.97;1.83;;;;;;;;;;4993640;28;20132;-65
2022/08/27 05:46:25;;;;;;;4.93;2.13;;;;;;;;;;4992971;28;20133;-67
2022/08/27 05:48:54;;;;;;;5.00;1.50;;;;;;;;;;4996650;28;20053;-65
2022/08/27 05:51:27;;;;;;;4.00;1.42;;;;;;;;;;5012970;28;20065;-66
2022/08/27 05:53:55;;;;;;;2.97;1.48;;;;;;;;;;5012226;28;20050;-66
2022/08/27 05:56:23;;;;;;;3.85;1.90;;;;;;;;;;4975178;28;20046;-66
2022/08/27 06:01:37;;;;;;;7.47;3.03;;;;;;;;;;4992906;28;20114;-67
2022/08/27 06:04:04;;;;;;;4.38;2.85;;;;;;;;;;5003705;28;20042;-67
2022/08/27 06:06:34;;;;;;;2.65;1.70;;;;;;;;;;5012005;28;20046;-66
2022/08/27 06:09:00;;;;;;;7.47;1.77;;;;;;;;;;5012956;28;20060;-66
2022/08/27 06:11:27;;;;;;;4.20;1.67;;;;;;;;;;5012464;28;20042;-66
2022/08/27 06:13:54;;;;;;;6.85;1.98;;;;;;;;;;5013068;28;20146;-65
2022/08/27 06:16:20;;;;;;;3.10;1.70;;;;;;;;;;5012382;28;20125;-66
2022/08/27 06:18:47;;;;;;;4.90;1.80;;;;;;;;;;5012698;28;20566;-66
2022/08/27 06:21:15;;;;;;;4.22;1.95;;;;;;;;;;5013243;28;20132;-67
2022/08/27 06:23:41;;;;;;;7.90;1.77;;;;;;;;;;5013423;28;20049;-67
2022/08/27 06:26:10;;;;;;;3.60;1.50;;;;;;;;;;5013343;28;20069;-67
2022/08/27 06:28:40;;;;;;;3.92;1.77;;;;;;;;;;5006876;28;20050;-66
2022/08/27 06:31:10;;;;;;;4.05;1.85;;;;;;;;;;4994782;28;20463;-67
2022/08/27 06:33:37;;;;;;;4.72;2.00;;;;;;;;;;4977062;28;20455;-70
2022/08/27 06:36:05;;;;;;;2.67;1.60;;;;;;;;;;5006725;28;20543;-67
2022/08/27 06:38:33;;;;;;;5.47;1.75;;;;;;;;;;5013496;28;20050;-67
2022/08/27 06:40:59;;;;;;;4.30;1.70;;;;;;;;;;5011948;28;20511;-69
2022/08/27 06:43:25;;;;;;;6.20;1.77;;;;;;;;;;5012903;28;20099;-67
2022/08/27 06:45:52;;;;;;;1.80;1.50;;;;;;;;;;5011342;28;20042;-68
2022/08/27 06:48:18;;;;;;;3.47;1.80;;;;;;;;;;5012518;28;20081;-65
2022/08/27 06:50:44;;;;;;;3.60;1.98;;;;;;;;;;5013762;28;20084;-68
2022/08/27 06:53:10;;;;;;;3.65;1.50;;;;;;;;;;5014056;28;20045;-68
2022/08/27 06:55:41;;;;;;;5.15;2.03;;;;;;;;;;5013033;28;20994;-69
2022/08/27 06:58:07;;;;;;;7.07;1.77;;;;;;;;;;5014106;28;20105;-66
2022/08/27 07:00:33;;;;;;;3.25;1.50;;;;;;;;;;5013275;28;20057;-68
2022/08/27 07:03:00;;;;;;;2.50;1.50;;;;;;;;;;5011221;28;20046;-66
2022/08/27 07:05:26;;;;;;;4.38;1.70;;;;;;;;;;5011630;28;20091;-67
2022/08/27 07:07:52;;;;;;;5.78;1.60;;;;;;;;;;4994806;28;20337;-68
2022/08/27 07:10:18;;;;;;;5.97;1.73;;;;;;;;;;5011674;28;20503;-70
2022/08/27 07:12:44;;;;;;;3.88;1.70;;;;;;;;;;5012839;28;20132;-66
2022/08/27 07:15:10;;;;;;;2.33;1.52;;;;;;;;;;5012183;28;20484;-68
2022/08/27 07:17:37;;;;;;;5.05;1.70;;;;;;;;;;5011324;28;20507;-68
2022/08/27 07:20:04;;;;;;;3.42;1.50;;;;;;;;;;4993538;28;20081;-70
2022/08/27 07:22:30;;;;;;;4.30;1.50;;;;;;;;;;5011428;28;20046;-68
2022/08/27 07:24:56;;;;;;;4.95;1.88;;;;;;;;;;4998643;28;20579;-67
2022/08/27 07:27:22;;;;;;;5.38;1.65;;;;;;;;;;4991319;28;20126;-67
2022/08/27 07:29:48;;;;;;;3.40;1.60;;;;;;;;;;4991359;28;20101;-69
2022/08/27 07:32:14;;;;;;;3.75;1.92;;;;;;;;;;4973821;28;20507;-68
2022/08/27 07:34:39;;;;;;;4.75;1.45;;;;;;;;;;5009717;28;20357;-74
2022/08/27 07:37:05;;;;;;;4.38;1.80;;;;;;;;;;5002247;28;20054;-74
2022/08/27 07:39:31;;;;;;;4.07;1.90;;;;;;;;;;5001397;28;20073;-75
2022/08/27 07:44:42;;;;;;;7.53;2.83;;;;;;;;;;5012740;28;20034;-75
2022/08/27 07:47:08;;;;;;;4.38;2.38;;;;;;;;;;5012870;28;20141;-75
2022/08/27 07:49:34;;;;;;;3.90;1.98;;;;;;;;;;5013536;28;20057;-76
2022/08/27 07:52:01;;;;;;;4.90;1.60;;;;;;;;;;4996816;28;20041;-74
2022/08/27 07:54:27;;;;;;;7.18;1.90;;;;;;;;;;5000489;28;20054;-73
2022/08/27 07:56:54;;;;;;;2.55;1.38;;;;;;;;;;4992977;28;20069;-75
2022/08/27 07:59:20;;;;;;;6.10;2.05;;;;;;;;;;4992672;28;20046;-73
2022/08/27 08:01:47;;;;;;;4.28;1.95;;;;;;;;;;4992429;28;20054;-75
2022/08/27 08:04:14;;;;;;;3.97;1.92;;;;;;;;;;4975291;28;20129;-75
2022/08/27 08:06:40;;;;;;;5.90;1.70;;;;;;;;;;4992234;28;20129;-75
2022/08/27 08:09:06;;;;;;;6.82;1.92;;;;;;;;;;4991627;28;20165;-74
2022/08/27 08:11:32;;;;;;;3.85;1.60;;;;;;;;;;4987970;28;20543;-75
2022/08/27 08:14:00;;;;;;;4.72;2.00;;;;;;;;;;5009046;28;20552;-76
2022/08/27 08:16:26;;;;;;;6.47;1.60;;;;;;;;;;5011408;28;20049;-75
2022/08/27 08:18:53;;;;;;;5.93;1.65;;;;;;;;;;5011362;28;20521;-72
2022/08/27 08:21:20;;;;;;;4.78;1.60;;;;;;;;;;5012326;28;20491;-76
2022/08/27 08:23:48;;;;;;;6.88;1.80;;;;;;;;;;5012162;28;20176;-75
2022/08/27 08:26:14;;;;;;;6.03;1.90;;;;;;;;;;5011376;28;20046;-74
2022/08/27 08:28:40;;;;;;;3.60;1.85;;;;;;;;;;5011762;28;20050;-75
2022/08/27 08:31:06;;;;;;;7.47;2.00;;;;;;;;;;5012073;28;20058;-76
2022/08/27 08:33:32;;;;;;;5.40;1.77;;;;;;;;;;5012311;28;20058;-76
2022/08/27 08:36:07;;;;;;;4.25;1.90;;;;;;;;;;4994705;28;20046;-75
2022/08/27 08:38:33;;;;;;;4.00;1.75;;;;;;;;;;5011917;28;20602;-75
2022/08/27 08:40:59;;;;;;;3.70;2.00;;;;;;;;;;5012024;28;20066;-75
2022/08/27 08:43:39;;;;;;;6.38;2.10;;;;;;;;;;5013217;28;20042;-76
2022/08/27 08:46:13;;;;;;;4.88;2.15;;;;;;;;;;5013463;28;20046;-75
2022/08/27 08:48:45;;;;;;;7.93;2.10;;;;;;;;;;5014582;28;20053;-75
2022/08/27 08:51:39;;;;;;;2.47;1.80;;;;;;;;;;5015163;28;20073;-73
2022/08/27 08:54:15;;;;;;;5.03;2.00;;;;;;;;;;5014856;28;20050;-74
2022/08/27 08:56:56;;;;;;;7.20;1.70;;;;;;;;;;5018383;28;20539;-77
2022/08/27 08:59:38;;;;;;;9.73;1.88;;;;;;;;;;5018298;28;20614;-77
2022/08/27 09:02:07;;;;;;;4.43;1.75;;;;;;;;;;5018825;28;20049;-76
2022/08/27 09:04:33;;;;;;;4.03;1.40;;;;;;;;;;5019806;28;20624;-77
2022/08/27 09:07:08;;;;;;;3.45;1.73;;;;;;;;;;5018215;28;20048;-75
2022/08/27 09:10:16;;;;;;;2.65;1.70;;;;;;;;;;5018124;28;20163;-76
2022/08/27 09:12:42;;;;;;;3.78;1.70;;;;;;;;;;5018959;28;20042;-78
2022/08/27 09:15:14;;;;;;;3.42;1.42;;;;;;;;;;5016147;28;20054;-74
2022/08/27 09:17:43;;;;;;;6.72;1.65;;;;;;;;;;5017114;28;20073;-75
2022/08/27 09:20:11;;;;;;;6.53;1.75;;;;;;;;;;5014822;28;20161;-77
2022/08/27 09:22:57;;;;;;;5.63;1.90;;;;;;;;;;5015850;28;20049;-75
2022/08/27 09:25:32;;;;;;;3.70;1.42;;;;;;;;;;4983720;28;20622;-75
2022/08/27 09:28:03;;;;;;;5.85;1.77;;;;;;;;;;5015000;28;20046;-73
2022/08/27 09:30:39;;;;;;;4.43;2.00;;;;;;;;;;5015721;28;20053;-76
2022/08/27 09:33:05;;;;;;;4.28;2.03;;;;;;;;;;5015612;28;20057;-78
2022/08/27 09:35:43;;;;;;;3.13;1.90;;;;;;;;;;5015745;28;20073;-77
2022/08/27 09:38:12;;;;;;;7.38;1.90;;;;;;;;;;5015804;28;20049;-72
2022/08/27 09:40:47;;;;;;;6.03;2.03;;;;;;;;;;5015268;28;20077;-76
2022/08/27 09:43:27;;;;;;;10.45;2.00;;;;;;;;;;5015779;28;20108;-78
2022/08/27 09:46:01;;;;;;;4.45;1.77;;;;;;;;;;5015852;28;20077;-77
2022/08/27 09:48:30;;;;;;;9.23;2.25;;;;;;;;;;4997153;28;20091;-75
2022/08/27 09:50:59;;;;;;;6.38;1.90;;;;;;;;;;5015029;28;20516;-77
2022/08/27 09:53:41;;;;;;;5.93;1.80;;;;;;;;;;5012221;28;20163;-76
2022/08/27 09:56:09;;;;;;;5.78;1.73;;;;;;;;;;5015615;28;20095;-75
2022/08/27 09:58:52;;;;;;;4.18;1.73;;;;;;;;;;4997995;28;20042;-77
2022/08/27 10:01:25;;;;;;;7.45;2.30;;;;;;;;;;5015138;28;20049;-77
2022/08/27 10:04:13;;;;;;;7.35;1.88;;;;;;;;;;5015570;28;20112;-78
2022/08/27 10:06:50;;;;;;;8.77;2.30;;;;;;;;;;5015107;28;20133;-77
2022/08/27 10:09:29;;;;;;;6.97;1.98;;;;;;;;;;5014395;28;20054;-77
2022/08/27 10:12:21;;;;;;;5.15;1.95;;;;;;;;;;5015575;28;20057;-78
2022/08/27 10:14:55;;;;;;;5.63;2.05;;;;;;;;;;5017234;28;20045;-75
2022/08/27 10:17:25;;;;;;;3.63;1.98;;;;;;;;;;5015656;28;20076;-77
2022/08/27 10:19:58;;;;;;;6.15;1.98;;;;;;;;;;5015341;28;20054;-77
2022/08/27 10:22:49;;;;;;;7.80;4.00;;;;;;;;;;5016934;28;20077;-77
2022/08/27 10:25:36;;;;;;;8.98;2.90;;;;;;;;;;5015571;28;20052;-78
2022/08/27 10:28:50;;;;;;;5.28;2.10;;;;;;;;;;5004483;28;20050;-77
2022/08/27 10:31:16;;;;;;;6.03;2.30;;;;;;;;;;5014643;28;20050;-79
2022/08/27 10:34:19;;;;;;;5.82;1.83;;;;;;;;;;5016491;28;20058;-77
2022/08/27 10:36:45;;;;;;;6.93;2.15;;;;;;;;;;5023029;28;20056;-81
2022/08/27 10:39:42;;;;;;;5.07;2.10;;;;;;;;;;5026873;28;20483;-77
2022/08/27 10:42:08;;;;;;;8.50;1.90;;;;;;;;;;5017557;28;20048;-76
2022/08/27 10:44:54;;;;;;;6.05;1.80;;;;;;;;;;4967830;28;20125;-78
2022/08/27 10:47:35;;;;;;;5.63;1.85;;;;;;;;;;4997281;28;20046;-77
2022/08/27 10:50:14;;;;;;;4.72;1.90;;;;;;;;;;4998760;28;20081;-78
2022/08/27 10:52:48;;;;;;;5.10;2.38;;;;;;;;;;5017796;28;20042;-77
2022/08/27 10:55:25;;;;;;;4.10;2.10;;;;;;;;;;5015646;28;20125;-77
2022/08/27 10:58:03;;;;;;;5.85;2.30;;;;;;;;;;5016983;28;20061;-76
2022/08/27 11:00:54;;;;;;;3.88;1.88;;;;;;;;;;5010010;28;20053;-75
2022/08/27 11:03:40;;;;;;;3.75;2.13;;;;;;;;;;5014579;28;20065;-77
2022/08/27 11:06:24;;;;;;;13.40;3.63;;;;;;;;;;5015786;28;20084;-75
2022/08/27 11:08:55;;;;;;;6.30;2.25;;;;;;;;;;5016641;28;20496;-78
2022/08/27 11:11:43;;;;;;;5.72;2.60;;;;;;;;;;5016669;28;20124;-79
2022/08/27 11:14:23;;;;;;;5.35;2.00;;;;;;;;;;5015981;28;20046;-77
2022/08/27 11:16:57;;;;;;;5.30;2.30;;;;;;;;;;5020469;28;20487;-81
2022/08/27 11:20:01;;;;;;;8.82;2.20;;;;;;;;;;5026197;28;20057;-77
2022/08/27 11:22:46;;;;;;;5.00;2.20;;;;;;;;;;5001156;28;20053;-76
2022/08/27 11:25:26;;;;;;;;;;;;;;;;;;5015717;28;20140;-79
2022/08/27 11:27:53;;;;;;;4.05;2.00;;;;;;;;;;5015741;28;20420;-74
2022/08/27 11:30:37;;;;;;;6.50;1.92;;;;;;;;;;5014612;28;20132;-77
2022/08/27 11:33:09;;;;;;;5.83;2.10;;;;;;;;;;4997118;28;20125;-77
2022/08/27 11:36:07;;;;;;;5.05;2.05;;;;;;;;;;4997320;28;20050;-78
2022/08/27 11:38:59;;;;;;;4.80;2.40;;;;;;;;;;4995696;28;20129;-79
2022/08/27 11:41:45;;;;;;;6.40;1.88;;;;;;;;;;4993307;28;20053;-76
2022/08/27 11:44:14;;;;;;;7.38;2.00;;;;;;;;;;4995712;28;20057;-77
2022/08/27 11:46:45;;;;;;;5.90;1.90;;;;;;;;;;4994924;28;20047;-77
2022/08/27 11:49:28;;;;;;;6.68;2.33;;;;;;;;;;4995133;28;20392;-74
2022/08/27 11:52:00;;;;;;;7.40;2.75;;;;;;;;;;4995663;28;20434;-77
2022/08/27 11:54:41;;;;;;;6.95;2.10;;;;;;;;;;4996591;28;20125;-78
2022/08/27 11:57:14;;;;;;;5.18;2.22;;;;;;;;;;5013134;28;20446;-75
2022/08/27 11:59:42;;;;;;;4.60;2.20;;;;;;;;;;5014796;28;20068;-77
2022/08/27 12:02:28;;;;;;;6.13;2.25;;;;;;;;;;5013347;28;20050;-78
2022/08/27 12:05:18;;;;;;;8.55;2.20;;;;;;;;;;5013686;28;20169;-75
2022/08/27 12:07:47;;;;;;;6.55;2.20;;;;;;;;;;5013703;28;20045;-76
2022/08/27 12:10:28;;;;;;;10.07;2.42;;;;;;;;;;4993419;28;20050;-76
2022/08/27 12:13:08;;;;;;;4.22;1.90;;;;;;;;;;4993280;28;20050;-76
2022/08/27 12:16:11;;;;;;;4.93;2.10;;;;;;;;;;4993570;28;20128;-78
2022/08/27 12:18:52;;;;;;;8.95;2.15;;;;;;;;;;4992666;28;20412;-77
2022/08/27 12:21:38;;;;;;;4.97;2.28;;;;;;;;;;5006647;28;20057;-78
2022/08/27 12:24:29;;;;;;;7.22;1.98;;;;;;;;;;4994480;28;20057;-76
2022/08/27 12:26:57;;;;;;;4.18;2.00;;;;;;;;;;5001501;28;20072;-77
2022/08/27 12:29:29;;;;;;;3.38;1.67;;;;;;;;;;5016833;28;20050;-76
2022/08/27 12:32:14;;;;;;;3.30;2.10;;;;;;;;;;5016360;28;20058;-77
2022/08/27 12:34:53;;;;;;;;;;;;;;;;;;5017219;28;20522;-77
2022/08/27 12:37:26;;;;;;;5.22;1.80;;;;;;;;;;5016988;28;20019;-78
2022/08/27 12:39:55;;;;;;;6.67;2.13;;;;;;;;;;4999445;28;20042;-77
2022/08/27 12:42:21;;;;;;;6.65;1.75;;;;;;;;;;5013253;28;20081;-80
2022/08/27 12:44:53;;;;;;;6.68;2.17;;;;;;;;;;4996032;28;20065;-78
2022/08/27 12:47:20;;;;;;;4.65;2.00;;;;;;;;;;4996391;28;20046;-80
2022/08/27 12:49:50;;;;;;;5.10;1.70;;;;;;;;;;4996409;28;20468;-78
2022/08/27 12:52:49;;;;;;;6.88;1.80;;;;;;;;;;4996546;28;20058;-76
2022/08/27 12:55:42;;;;;;;6.28;2.00;;;;;;;;;;4984444;28;20054;-76
2022/08/27 12:58:22;;;;;;;6.18;3.30;;;;;;;;;;4996832;28;20058;-77
2022/08/27 13:01:15;;;;;;;6.32;1.90;;;;;;;;;;4997229;28;20077;-77
2022/08/27 13:03:46;;;;;;;4.35;1.58;;;;;;;;;;4995434;28;20100;-76
2022/08/27 13:06:19;;;;;;;7.63;1.75;;;;;;;;;;4995698;28;20058;-76
2022/08/27 13:08:46;;;;;;;7.93;2.38;;;;;;;;;;4995627;28;20054;-77
2022/08/27 13:11:22;;;;;;;6.30;1.90;;;;;;;;;;4995723;28;20060;-78
2022/08/27 13:13:49;;;;;;;5.50;1.95;;;;;;;;;;5014654;28;20173;-79
2022/08/27 13:16:19;;;;;;;4.68;1.60;;;;;;;;;;5011499;28;20070;-76
2022/08/27 13:18:48;;;;;;;7.07;2.10;;;;;;;;;;4998986;28;20065;-76
2022/08/27 13:21:27;;;;;;;5.80;1.80;;;;;;;;;;4995009;28;20105;-77
2022/08/27 13:23:57;;;;;;;4.05;1.77;;;;;;;;;;4995878;28;20047;-76
2022/08/27 13:26:28;;;;;;;6.63;2.50;;;;;;;;;;4997765;28;20101;-77
2022/08/27 13:28:55;;;;;;;7.53;1.90;;;;;;;;;;4997011;28;20073;-74
2022/08/27 13:31:22;;;;;;;5.70;1.75;;;;;;;;;;4995472;28;20120;-76
2022/08/27 13:33:49;;;;;;;4.28;1.67;;;;;;;;;;4995976;28;20077;-78
2022/08/27 13:36:37;;;;;;;4.82;1.90;;;;;;;;;;4994995;28;20137;-75
2022/08/27 13:39:05;;;;;;;5.40;1.60;;;;;;;;;;4994224;28;20072;-77
2022/08/27 13:41:36;;;;;;;9.45;1.90;;;;;;;;;;4995850;28;20072;-78
2022/08/27 13:44:25;;;;;;;3.50;1.30;;;;;;;;;;4996752;28;20054;-79
2022/08/27 13:46:59;;;;;;;2.58;1.30;;;;;;;;;;4997839;28;20066;-77
2022/08/27 13:49:26;;;;;;;;;;;;;;;;;;4983829;28;20054;-76
2022/08/27 13:52:32;;;;;;;2.90;1.38;;;;;;;;;;4998042;28;19928;-75
2022/08/27 13:55:09;;;;;;;3.58;1.40;;;;;;;;;;5004947;28;20534;-76
2022/08/27 13:57:47;;;;;;;6.38;1.92;;;;;;;;;;5020560;28;20054;-78
2022/08/27 14:00:17;;;;;;;5.32;1.80;;;;;;;;;;5001407;28;20053;-79
2022/08/27 14:02:46;;;;;;;6.05;1.60;;;;;;;;;;5017821;28;20049;-78
2022/08/27 14:05:25;;;;;;;4.90;1.50;;;;;;;;;;5017612;28;20073;-79
2022/08/27 14:08:08;;;;;;;5.03;1.45;;;;;;;;;;5009893;28;20427;-79
2022/08/27 14:10:38;;;;;;;8.55;1.52;;;;;;;;;;4996939;28;20068;-76
2022/08/27 14:13:12;;;;;;;5.03;1.40;;;;;;;;;;4979310;28;20078;-75
2022/08/27 14:15:56;;;;;;;3.30;1.25;;;;;;;;;;4995580;28;20129;-75
2022/08/27 14:18:25;;;;;;;7.07;1.40;;;;;;;;;;4997174;28;20064;-78
2022/08/27 14:20:51;;;;;;;5.53;1.40;;;;;;;;;;4997668;28;20046;-77
2022/08/27 14:23:17;;;;;;;5.38;1.40;;;;;;;;;;4996267;28;20046;-79
2022/08/27 14:25:43;;;;;;;7.00;1.20;;;;;;;;;;5010846;28;20041;-79
2022/08/27 14:28:09;;;;;;;4.45;1.40;;;;;;;;;;5015796;28;20058;-75
2022/08/27 14:30:35;;;;;;;3.35;1.45;;;;;;;;;;4998604;28;20104;-76
2022/08/27 14:33:01;;;;;;;6.68;1.50;;;;;;;;;;5028742;28;20036;-78
2022/08/27 14:35:31;;;;;;;9.52;1.95;;;;;;;;;;5033633;28;20030;-77
2022/08/27 14:38:00;;;;;;;8.35;1.95;;;;;;;;;;5034019;28;20069;-80
2022/08/27 14:40:26;;;;;;;4.03;1.48;;;;;;;;;;5033440;28;20117;-80
2022/08/27 14:42:51;;;;;;;5.72;1.30;;;;;;;;;;5032197;28;20045;-80
2022/08/27 14:45:18;;;;;;;4.53;1.55;;;;;;;;;;5032734;28;20053;-78
2022/08/27 14:47:44;;;;;;;6.75;1.50;;;;;;;;;;5031578;28;20052;-79
2022/08/27 14:50:12;;;;;;;7.25;1.45;;;;;;;;;;5013318;28;20046;-79
2022/08/27 14:52:39;;;;;;;6.30;1.70;;;;;;;;;;4996119;28;20050;-81
2022/08/27 14:55:08;;;;;;;5.78;1.40;;;;;;;;;;5020570;28;20048;-79
2022/08/27 14:57:33;;;;;;;9.25;1.50;;;;;;;;;;5032922;28;20068;-80
2022/08/27 14:59:59;;;;;;;4.53;1.65;;;;;;;;;;5033270;28;20109;-79
2022/08/27 15:02:25;;;;;;;5.75;1.30;;;;;;;;;;5026370;28;20042;-76
2022/08/27 15:04:51;;;;;;;3.75;1.38;;;;;;;;;;5017541;28;20113;-79
2022/08/27 15:07:18;;;;;;;3.83;1.40;;;;;;;;;;5016148;28;20065;-79
2022/08/27 15:09:45;;;;;;;6.55;1.42;;;;;;;;;;5016095;28;20046;-77
2022/08/27 15:12:13;;;;;;;4.18;1.35;;;;;;;;;;5015044;28;20053;-76